sensor_id;sensor_type;location;lat;lon;timestamp;P1;durP1;ratioP1;P2;durP2;ratioP2
43672;SDS011;41723;49.326;8.430;2023-09-12T14:09:51;100.55;;;25.55;;
43672;SDS011;41723;49.326;8.430;2023-09-12T14:29:25;701.70;;;419.92;;
43672;SDS011;41723;49.326;8.430;2023-09-12T14:31:53;8.77;;;3.88;;
43672;SDS011;41723;49.326;8.430;2023-09-12T14:34:26;36.70;;;34.50;;
43672;SDS011;41723;49.326;8.430;2023-09-12T14:36:55;443.00;;;190.35;;
43672;SDS011;41723;49.326;8.430;2023-09-12T14:39:22;532.97;;;428.02;;
43672;SDS011;41723;49.326;8.430;2023-09-12T14:41:48;710.22;;;554.22;;
43672;SDS011;41723;49.326;8.430;2023-09-12T14:44:19;684.85;;;465.92;;
43672;SDS011;41723;49.326;8.430;2023-09-12T14:46:45;677.10;;;441.90;;
43672;SDS011;41723;49.326;8.430;2023-09-12T14:49:11;715.13;;;405.27;;
43672;SDS011;41723;49.326;8.430;2023-09-12T14:51:37;701.47;;;389.33;;
43672;SDS011;41723;49.326;8.430;2023-09-12T14:54:03;732.13;;;398.73;;
43672;SDS011;41723;49.326;8.430;2023-09-12T14:56:29;773.45;;;446.52;;
43672;SDS011;41723;49.326;8.430;2023-09-12T14:58:56;784.20;;;422.73;;
43672;SDS011;41723;49.326;8.430;2023-09-12T15:01:21;744.97;;;368.75;;
43672;SDS011;41723;49.326;8.430;2023-09-12T15:03:48;747.35;;;406.48;;
43672;SDS011;41723;49.326;8.430;2023-09-12T15:06:14;768.95;;;446.48;;
43672;SDS011;41723;49.326;8.430;2023-09-12T15:08:40;735.45;;;624.30;;
43672;SDS011;41723;49.326;8.430;2023-09-12T15:11:05;785.00;;;702.88;;
43672;SDS011;41723;49.326;8.430;2023-09-12T15:13:31;661.70;;;539.60;;
43672;SDS011;41723;49.326;8.430;2023-09-12T15:15:57;724.67;;;645.40;;
43672;SDS011;41723;49.326;8.430;2023-09-12T15:18:23;804.63;;;721.30;;
43672;SDS011;41723;49.326;8.430;2023-09-12T15:20:49;632.42;;;426.45;;
43672;SDS011;41723;49.326;8.430;2023-09-12T15:23:17;630.10;;;392.48;;
43672;SDS011;41723;49.326;8.430;2023-09-12T15:25:44;643.83;;;439.73;;
43672;SDS011;41723;49.326;8.430;2023-09-12T15:28:09;643.45;;;393.20;;
43672;SDS011;41723;49.326;8.430;2023-09-12T15:30:35;645.58;;;450.08;;
43672;SDS011;41723;49.326;8.430;2023-09-12T15:33:01;641.10;;;409.90;;
43672;SDS011;41723;49.326;8.430;2023-09-12T15:35:26;639.05;;;399.10;;
43672;SDS011;41723;49.326;8.430;2023-09-12T15:37:52;639.10;;;324.30;;
43672;SDS011;41723;49.326;8.430;2023-09-12T15:40:18;661.17;;;346.88;;
43672;SDS011;41723;49.326;8.430;2023-09-12T15:42:43;679.83;;;295.45;;
43672;SDS011;41723;49.326;8.430;2023-09-12T15:45:09;673.17;;;319.23;;
43672;SDS011;41723;49.326;8.430;2023-09-12T15:47:36;689.38;;;319.88;;
43672;SDS011;41723;49.326;8.430;2023-09-12T15:50:04;701.35;;;306.17;;
43672;SDS011;41723;49.326;8.430;2023-09-12T15:52:30;698.78;;;288.90;;
43672;SDS011;41723;49.326;8.430;2023-09-12T15:55:02;467.00;;;181.32;;
43672;SDS011;41723;49.326;8.430;2023-09-12T15:57:28;700.58;;;267.67;;
43672;SDS011;41723;49.326;8.430;2023-09-12T15:59:54;666.05;;;176.77;;
43672;SDS011;41723;49.326;8.430;2023-09-12T16:02:19;658.80;;;176.02;;
43672;SDS011;41723;49.326;8.430;2023-09-12T16:04:46;411.48;;;90.90;;
43672;SDS011;41723;49.326;8.430;2023-09-12T16:07:11;684.55;;;235.25;;
43672;SDS011;41723;49.326;8.430;2023-09-12T16:09:37;658.15;;;176.30;;
43672;SDS011;41723;49.326;8.430;2023-09-12T16:12:03;641.35;;;168.20;;
43672;SDS011;41723;49.326;8.430;2023-09-12T16:14:32;596.30;;;107.57;;
43672;SDS011;41723;49.326;8.430;2023-09-12T16:16:59;7.97;;;3.58;;
43672;SDS011;41723;49.326;8.430;2023-09-12T16:19:26;37.97;;;11.52;;
43672;SDS011;41723;49.326;8.430;2023-09-12T16:21:52;38.47;;;8.50;;
43672;SDS011;41723;49.326;8.430;2023-09-12T16:24:18;17.75;;;7.18;;
43672;SDS011;41723;49.326;8.430;2023-09-12T16:26:44;19.23;;;7.03;;
43672;SDS011;41723;49.326;8.430;2023-09-12T16:29:09;15.10;;;5.72;;
43672;SDS011;41723;49.326;8.430;2023-09-12T16:31:35;13.30;;;4.97;;
43672;SDS011;41723;49.326;8.430;2023-09-12T16:34:01;8.43;;;3.90;;
43672;SDS011;41723;49.326;8.430;2023-09-12T16:36:27;13.27;;;4.88;;
43672;SDS011;41723;49.326;8.430;2023-09-12T16:38:53;18.55;;;6.05;;
43672;SDS011;41723;49.326;8.430;2023-09-12T16:41:19;21.52;;;7.68;;
43672;SDS011;41723;49.326;8.430;2023-09-12T16:43:44;6.70;;;3.33;;
43672;SDS011;41723;49.326;8.430;2023-09-12T16:46:10;8.27;;;4.10;;
43672;SDS011;41723;49.326;8.430;2023-09-12T16:48:36;6.28;;;3.05;;
43672;SDS011;41723;49.326;8.430;2023-09-12T16:51:01;4.28;;;2.00;;
43672;SDS011;41723;49.326;8.430;2023-09-12T16:53:27;7.70;;;2.65;;
43672;SDS011;41723;49.326;8.430;2023-09-12T16:55:53;5.72;;;2.08;;
43672;SDS011;41723;49.326;8.430;2023-09-12T16:58:18;14.23;;;3.97;;
43672;SDS011;41723;49.326;8.430;2023-09-12T17:00:44;149.52;;;29.40;;
43672;SDS011;41723;49.326;8.430;2023-09-12T18:38:16;650.50;;;119.50;;
43672;SDS011;41723;49.326;8.430;2023-09-12T18:40:42;300.73;;;57.37;;
43672;SDS011;41723;49.326;8.430;2023-09-12T18:43:08;370.30;;;74.07;;
43672;SDS011;41723;49.326;8.430;2023-09-12T18:45:33;502.45;;;132.77;;
